createdAt,value
2022-08-14T00:05:00.185Z,99.90
2022-08-14T00:10:49.977Z,99.90
2022-08-14T00:15:43.475Z,99.90
2022-08-14T00:20:46.495Z,99.90
2022-08-14T00:25:53.683Z,99.90
2022-08-14T00:31:01.143Z,99.90
2022-08-14T00:36:39.143Z,99.90
2022-08-14T00:41:31.508Z,99.90
2022-08-14T00:46:37.333Z,99.90
2022-08-14T00:51:39.626Z,99.90
2022-08-14T00:56:42.974Z,99.90
2022-08-14T01:01:46.064Z,99.90
2022-08-14T01:06:55.343Z,99.90
2022-08-14T01:12:03.231Z,99.90
2022-08-14T01:17:05.564Z,99.90
2022-08-14T01:22:12.386Z,99.90
2022-08-14T01:27:18.578Z,99.90
2022-08-14T01:32:23.073Z,99.90
2022-08-14T01:37:25.647Z,99.90
2022-08-14T01:42:31.395Z,99.90
2022-08-14T01:47:37.283Z,99.90
2022-08-14T01:52:59.224Z,99.90
2022-08-14T01:58:20.079Z,99.90
2022-08-14T02:03:30.880Z,99.90
2022-08-14T02:08:35.095Z,99.90
2022-08-14T02:13:38.132Z,99.90
2022-08-14T02:18:40.024Z,99.90
2022-08-14T02:23:42.983Z,99.90
2022-08-14T02:28:58.495Z,99.90
2022-08-14T02:34:26.292Z,99.90
2022-08-14T02:39:30.137Z,99.90
2022-08-14T02:44:31.943Z,99.90
2022-08-14T02:49:42.829Z,99.90
2022-08-14T02:54:45.829Z,99.90
2022-08-14T02:59:49.908Z,99.90
2022-08-14T03:04:54.397Z,99.90
2022-08-14T03:10:27.666Z,99.90
2022-08-14T03:15:19.239Z,99.90
2022-08-14T03:20:22.851Z,99.90
2022-08-14T03:25:25.162Z,99.90
2022-08-14T03:30:40.020Z,99.90
2022-08-14T03:36:05.464Z,99.90
2022-08-14T03:41:06.769Z,99.90
2022-08-14T03:46:39.200Z,99.90
2022-08-14T03:51:34.006Z,99.90
2022-08-14T03:56:44.451Z,99.90
2022-08-14T04:01:58.244Z,99.90
2022-08-14T04:07:04.105Z,99.90
2022-08-14T04:12:07.627Z,99.90
2022-08-14T04:17:11.248Z,99.90
2022-08-14T04:22:14.913Z,99.90
2022-08-14T04:27:18.556Z,99.90
2022-08-14T04:33:00.714Z,99.90
2022-08-14T04:38:07.690Z,99.90
2022-08-14T04:43:39.888Z,99.90
2022-08-14T04:48:43.815Z,99.90
2022-08-14T04:53:54.434Z,99.90
2022-08-14T04:59:01.599Z,99.90
2022-08-14T05:04:04.606Z,99.90
2022-08-14T05:09:14.375Z,99.90
2022-08-14T05:14:45.423Z,99.90
2022-08-14T05:19:45.039Z,99.90
2022-08-14T05:25:04.223Z,99.90
2022-08-14T05:30:07.849Z,99.90
2022-08-14T05:35:11.765Z,99.90
2022-08-14T05:40:16.425Z,99.90
2022-08-14T05:45:20.538Z,99.90
2022-08-14T05:50:22.303Z,99.90
2022-08-14T05:55:25.670Z,99.90
2022-08-14T06:00:38.544Z,99.90
2022-08-14T06:05:41.507Z,99.90
2022-08-14T06:10:44.371Z,99.90
2022-08-14T06:15:47.713Z,99.90
2022-08-14T06:20:49.660Z,99.90
2022-08-14T06:25:52.672Z,99.90
2022-08-14T06:30:55.923Z,99.90
2022-08-14T06:35:58.264Z,99.90
2022-08-14T06:41:00.786Z,99.90
2022-08-14T06:46:03.984Z,99.90
2022-08-14T06:51:05.929Z,99.90
2022-08-14T06:56:07.828Z,99.90
2022-08-14T07:01:28.454Z,99.90
2022-08-14T07:06:46.746Z,99.90
2022-08-14T07:11:49.750Z,99.90
2022-08-14T07:16:52.716Z,99.90
2022-08-14T07:21:54.536Z,99.90
2022-08-14T07:26:56.217Z,99.90
2022-08-14T07:31:57.990Z,99.90
2022-08-14T07:37:01.113Z,99.90
2022-08-14T07:42:03.350Z,99.90
2022-08-14T07:47:05.468Z,99.90
2022-08-14T07:52:07.406Z,99.90
2022-08-14T07:57:12.060Z,99.90
2022-08-14T08:02:20.229Z,99.90
2022-08-14T08:07:31.097Z,99.90
2022-08-14T08:12:40.517Z,99.90
2022-08-14T08:17:53.403Z,99.90
2022-08-14T08:23:06.520Z,99.90
2022-08-14T08:28:27.647Z,99.90
2022-08-14T08:33:37.038Z,99.90
2022-08-14T08:39:15.043Z,99.90
2022-08-14T08:44:05.522Z,99.90
2022-08-14T08:49:07.602Z,99.90
2022-08-14T08:54:18.461Z,99.90
2022-08-14T08:59:31.404Z,99.90
2022-08-14T09:04:45.328Z,99.90
2022-08-14T09:09:58.558Z,99.90
2022-08-14T09:15:09.005Z,99.90
2022-08-14T09:20:26.462Z,99.90
2022-08-14T09:26:00.512Z,99.90
2022-08-14T09:30:57.768Z,99.90
2022-08-14T09:36:18.536Z,99.90
2022-08-14T09:42:21.827Z,99.90
2022-08-14T09:47:51.820Z,99.90
2022-08-14T09:52:58.864Z,99.90
2022-08-14T09:58:19.634Z,99.90
2022-08-14T10:03:33.109Z,99.90
2022-08-14T10:08:54.561Z,99.80
2022-08-14T10:14:29.036Z,99.60
2022-08-14T10:19:48.709Z,98.70
2022-08-14T10:24:51.521Z,97.60
2022-08-14T10:30:01.524Z,97.00
2022-08-14T10:35:13.631Z,95.70
2022-08-14T10:40:43.636Z,94.70
2022-08-14T10:45:59.762Z,93.50
2022-08-14T10:51:25.394Z,91.60
2022-08-14T10:56:34.118Z,90.70
2022-08-14T11:01:41.351Z,90.10
2022-08-14T11:06:55.257Z,85.40
2022-08-14T11:12:39.975Z,86.40
2022-08-14T11:17:21.811Z,84.50
2022-08-14T11:22:55.656Z,85.60
2022-08-14T11:27:53.672Z,82.70
2022-08-14T11:32:58.349Z,80.00
2022-08-14T11:38:05.163Z,77.10
2022-08-14T11:43:09.027Z,77.90
2022-08-14T11:49:02.562Z,76.50
2022-08-14T11:53:43.584Z,76.80
2022-08-14T11:58:53.221Z,76.20
2022-08-14T12:03:58.887Z,71.50
2022-08-14T12:09:08.930Z,74.10
2022-08-14T12:14:30.551Z,74.70
2022-08-14T12:19:51.203Z,73.80
2022-08-14T12:24:55.409Z,73.10
2022-08-14T12:29:57.441Z,70.80
2022-08-14T12:34:59.383Z,70.90
2022-08-14T12:40:11.880Z,70.10
2022-08-14T12:45:17.217Z,67.50
2022-08-14T12:50:20.201Z,69.50
2022-08-14T12:55:22.299Z,68.30
2022-08-14T13:00:25.371Z,64.80
2022-08-14T13:05:31.952Z,64.20
2022-08-14T13:10:47.101Z,66.40
2022-08-14T13:15:56.218Z,66.10
2022-08-14T13:21:02.282Z,64.90
2022-08-14T13:26:05.061Z,63.90
2022-08-14T13:31:11.908Z,63.70
2022-08-14T13:36:24.406Z,63.30
2022-08-14T13:41:37.783Z,62.80
2022-08-14T13:46:39.721Z,63.10
2022-08-14T13:51:50.405Z,63.60
2022-08-14T13:56:56.202Z,61.10
2022-08-14T14:02:04.464Z,62.70
2022-08-14T14:07:14.063Z,62.20
2022-08-14T14:12:37.690Z,62.30
2022-08-14T14:17:40.666Z,67.80
2022-08-14T14:23:01.584Z,76.70
2022-08-14T14:28:05.210Z,76.10
2022-08-14T14:33:42.419Z,75.00
2022-08-14T14:38:34.427Z,74.20
2022-08-14T14:43:45.166Z,74.30
2022-08-14T14:48:54.547Z,73.50
2022-08-14T14:53:57.685Z,74.00
2022-08-14T14:59:00.621Z,73.10
2022-08-14T15:04:07.749Z,73.70
2022-08-14T15:09:10.001Z,72.90
2022-08-14T15:14:55.275Z,71.70
2022-08-14T15:19:56.158Z,73.10
2022-08-14T15:24:59.062Z,72.20
2022-08-14T15:30:01.139Z,71.40
2022-08-14T15:35:04.983Z,71.90
2022-08-14T15:40:16.475Z,71.70
2022-08-14T15:45:24.347Z,71.90
2022-08-14T15:50:26.434Z,71.00
2022-08-14T15:55:30.350Z,72.30
2022-08-14T16:00:52.942Z,72.10
2022-08-14T16:05:55.771Z,72.00
2022-08-14T16:10:59.679Z,70.50
2022-08-14T16:16:34.434Z,69.10
2022-08-14T16:21:25.206Z,69.10
2022-08-14T16:26:29.886Z,69.60
2022-08-14T16:31:39.908Z,69.60
2022-08-14T16:36:50.961Z,70.30
2022-08-14T16:41:53.661Z,70.50
2022-08-14T16:46:57.556Z,70.10
2022-08-14T16:52:02.147Z,70.00
2022-08-14T16:57:22.492Z,69.40
2022-08-14T17:02:39.222Z,69.70
2022-08-14T17:07:44.773Z,69.80
2022-08-14T17:12:48.816Z,69.60
2022-08-14T17:17:57.820Z,70.30
2022-08-14T17:23:00.340Z,70.70
2022-08-14T17:28:52.305Z,71.60
2022-08-14T17:33:44.189Z,71.90
2022-08-14T17:39:06.950Z,72.20
2022-08-14T17:44:33.308Z,72.20
2022-08-14T17:49:52.124Z,72.80
2022-08-14T17:55:00.633Z,73.40
2022-08-14T18:00:05.843Z,73.70
2022-08-14T18:05:09.900Z,74.80
2022-08-14T18:10:51.988Z,75.20
2022-08-14T18:15:37.243Z,76.10
2022-08-14T18:21:40.565Z,77.70
2022-08-14T18:26:07.746Z,78.40
2022-08-14T18:31:42.296Z,79.00
2022-08-14T18:37:03.719Z,80.00
2022-08-14T18:42:23.539Z,81.10
2022-08-14T18:47:26.377Z,81.90
2022-08-14T18:52:34.599Z,83.20
2022-08-14T18:57:54.853Z,84.70
2022-08-14T19:03:01.805Z,85.90
2022-08-14T19:08:18.627Z,85.70
2022-08-14T19:13:48.021Z,85.70
2022-08-14T19:18:53.326Z,85.20
2022-08-14T19:24:04.342Z,85.40
2022-08-14T19:29:35.965Z,85.70
2022-08-14T19:34:48.044Z,86.40
2022-08-14T19:39:56.617Z,86.50
2022-08-14T19:44:58.464Z,86.70
2022-08-14T19:50:30.413Z,87.60
2022-08-14T19:55:34.189Z,88.40
2022-08-14T20:00:52.047Z,88.30
2022-08-14T20:06:05.544Z,89.20
2022-08-14T20:12:02.063Z,89.90
2022-08-14T20:17:05.511Z,89.90
2022-08-14T20:22:37.580Z,90.30
2022-08-14T20:27:34.952Z,90.80
2022-08-14T20:32:50.207Z,90.90
2022-08-14T20:38:29.792Z,90.90
2022-08-14T20:43:56.317Z,92.20
2022-08-14T20:49:06.001Z,91.20
2022-08-14T20:54:34.138Z,91.50
2022-08-14T20:59:53.123Z,91.90
2022-08-14T21:05:16.157Z,91.70
2022-08-14T21:10:35.712Z,91.70
2022-08-14T21:15:57.358Z,92.10
2022-08-14T21:21:07.937Z,92.10
2022-08-14T21:26:12.946Z,92.40
2022-08-14T21:31:15.240Z,93.00
2022-08-14T21:36:25.351Z,93.70
2022-08-14T21:41:41.290Z,93.10
2022-08-14T21:46:53.504Z,93.50
2022-08-14T21:52:49.575Z,93.20
2022-08-14T21:57:53.562Z,93.90
2022-08-14T22:02:52.798Z,94.60
2022-08-14T22:07:57.801Z,94.20
2022-08-14T22:13:01.378Z,94.60
2022-08-14T22:18:04.819Z,94.60
2022-08-14T22:23:09.654Z,95.10
2022-08-14T22:28:18.001Z,95.30
2022-08-14T22:33:20.678Z,95.80
2022-08-14T22:38:36.991Z,95.80
2022-08-14T22:43:41.178Z,96.50
2022-08-14T22:48:47.169Z,96.10
2022-08-14T22:53:52.582Z,96.10
2022-08-14T22:58:57.703Z,96.40
2022-08-14T23:04:00.187Z,96.40
2022-08-14T23:09:35.854Z,96.90
2022-08-14T23:14:30.688Z,96.70
2022-08-14T23:19:42.271Z,97.50
2022-08-14T23:24:44.681Z,97.90
2022-08-14T23:29:50.587Z,98.90
2022-08-14T23:34:55.974Z,98.70
2022-08-14T23:39:59.988Z,98.80
2022-08-14T23:45:02.073Z,98.90
2022-08-14T23:50:07.625Z,99.60
2022-08-14T23:55:11.084Z,99.70
